createdAt,value
2019-02-12T00:00:31.792Z,68.81
2019-02-12T00:02:59.181Z,68.82
2019-02-12T00:05:26.601Z,68.85
2019-02-12T00:07:53.967Z,68.66
2019-02-12T00:10:21.382Z,68.75
2019-02-12T00:12:48.791Z,69.00
2019-02-12T00:15:16.210Z,69.09
2019-02-12T00:17:43.591Z,69.28
2019-02-12T00:20:11.031Z,69.36
2019-02-12T00:22:38.406Z,69.58
2019-02-12T00:25:05.966Z,69.50
2019-02-12T00:27:33.341Z,69.95
2019-02-12T00:30:00.791Z,70.37
2019-02-12T00:32:28.168Z,70.29
2019-02-12T00:34:55.586Z,70.54
2019-02-12T00:37:22.972Z,70.60
2019-02-12T00:39:50.371Z,70.68
2019-02-12T00:42:17.741Z,71.00
2019-02-12T00:44:45.176Z,70.77
2019-02-12T00:47:12.580Z,71.37
2019-02-12T00:49:40.006Z,71.38
2019-02-12T00:52:07.407Z,71.77
2019-02-12T00:54:34.854Z,72.05
2019-02-12T00:57:02.241Z,72.50
2019-02-12T00:59:29.616Z,72.83
2019-02-12T01:01:56.686Z,73.26
2019-02-12T01:04:24.061Z,73.62
2019-02-12T01:06:51.500Z,74.08
2019-02-12T01:09:18.871Z,74.19
2019-02-12T01:11:46.273Z,74.51
2019-02-12T01:14:13.786Z,74.66
2019-02-12T01:16:41.191Z,74.93
2019-02-12T01:19:08.581Z,75.06
2019-02-12T01:21:35.991Z,75.17
2019-02-12T01:24:03.397Z,75.45
2019-02-12T01:26:30.806Z,75.82
2019-02-12T01:28:58.219Z,76.18
2019-02-12T01:31:25.728Z,76.27
2019-02-12T01:33:53.111Z,76.60
2019-02-12T01:36:20.530Z,76.64
2019-02-12T01:38:47.921Z,76.75
2019-02-12T01:41:15.352Z,76.93
2019-02-12T01:43:42.757Z,77.10
2019-02-12T01:46:10.161Z,77.74
2019-02-12T01:48:37.566Z,77.90
2019-02-12T01:51:04.987Z,78.20
2019-02-12T01:53:32.351Z,78.22
2019-02-12T01:55:59.794Z,78.38
2019-02-12T01:58:27.156Z,78.85
2019-02-12T02:00:54.582Z,79.09
2019-02-12T02:03:21.947Z,79.35
2019-02-12T02:05:49.396Z,79.69
2019-02-12T02:08:16.782Z,79.51
2019-02-12T02:10:44.206Z,79.84
2019-02-12T02:13:11.641Z,79.75
2019-02-12T02:15:39.071Z,79.78
2019-02-12T02:18:06.460Z,79.99
2019-02-12T02:20:33.821Z,79.75
2019-02-12T02:23:01.267Z,80.06
2019-02-12T02:25:28.643Z,80.11
2019-02-12T02:27:57.201Z,80.38
2019-02-12T02:30:24.574Z,80.56
2019-02-12T02:32:51.999Z,80.71
2019-02-12T02:35:19.379Z,80.59
2019-02-12T02:37:46.802Z,80.89
2019-02-12T02:40:14.191Z,81.03
2019-02-12T02:42:41.626Z,81.09
2019-02-12T02:45:09.577Z,81.09
2019-02-12T02:47:37.018Z,81.18
2019-02-12T02:50:04.786Z,81.51
2019-02-12T02:52:32.251Z,81.79
2019-02-12T02:54:59.701Z,82.20
2019-02-12T02:57:27.117Z,82.58
2019-02-12T02:59:54.490Z,82.42
2019-02-12T03:02:21.914Z,82.48
2019-02-12T03:04:49.696Z,82.59
2019-02-12T03:07:17.146Z,82.85
2019-02-12T03:09:44.517Z,83.07
2019-02-12T03:12:11.972Z,83.29
2019-02-12T03:14:39.362Z,83.41
2019-02-12T03:17:06.767Z,83.67
2019-02-12T03:19:34.136Z,83.80
2019-02-12T03:22:03.566Z,84.19
2019-02-12T03:24:30.853Z,84.47
2019-02-12T03:26:58.221Z,84.61
2019-02-12T03:29:25.633Z,84.78
2019-02-12T03:31:53.027Z,84.94
2019-02-12T03:34:20.449Z,85.16
2019-02-12T03:36:47.841Z,85.33
2019-02-12T03:39:15.276Z,85.38
2019-02-12T03:41:42.666Z,85.43
2019-02-12T03:44:10.116Z,85.55
2019-02-12T03:46:37.481Z,85.60
2019-02-12T03:49:04.934Z,85.49
2019-02-12T03:51:32.311Z,85.55
2019-02-12T03:53:59.741Z,85.68
2019-02-12T03:56:27.121Z,85.83
2019-02-12T03:58:54.894Z,85.96
2019-02-12T04:01:22.362Z,86.03
2019-02-12T04:03:49.898Z,86.07
2019-02-12T04:06:17.265Z,86.36
2019-02-12T04:08:44.695Z,86.46
2019-02-12T04:11:12.061Z,86.43
2019-02-12T04:13:39.541Z,86.41
2019-02-12T04:16:06.929Z,86.28
2019-02-12T04:18:34.482Z,86.40
2019-02-12T04:21:02.259Z,86.44
2019-02-12T04:23:29.740Z,86.43
2019-02-12T04:25:57.096Z,86.50
2019-02-12T04:28:24.529Z,86.48
2019-02-12T04:30:51.886Z,86.41
2019-02-12T04:33:19.292Z,86.33
2019-02-12T04:35:46.683Z,86.33
2019-02-12T04:38:14.116Z,86.23
2019-02-12T04:40:41.510Z,86.18
2019-02-12T04:43:08.916Z,85.88
2019-02-12T04:45:36.297Z,85.77
2019-02-12T04:48:03.822Z,85.61
2019-02-12T04:50:31.236Z,85.55
2019-02-12T04:52:58.676Z,85.38
2019-02-12T04:55:26.062Z,85.33
2019-02-12T04:57:53.447Z,85.53
2019-02-12T05:00:20.888Z,85.55
2019-02-12T05:02:48.271Z,85.67
2019-02-12T05:05:15.791Z,85.35
2019-02-12T05:07:43.182Z,84.89
2019-02-12T05:10:12.642Z,84.32
2019-02-12T05:12:40.058Z,83.91
2019-02-12T05:15:08.402Z,84.21
2019-02-12T05:17:35.763Z,84.06
2019-02-12T05:20:03.461Z,83.81
2019-02-12T05:22:30.869Z,83.59
2019-02-12T05:24:58.301Z,83.74
2019-02-12T05:27:25.656Z,84.05
2019-02-12T05:29:53.052Z,83.95
2019-02-12T05:32:20.416Z,84.10
2019-02-12T05:34:47.860Z,84.28
2019-02-12T05:37:15.283Z,84.22
2019-02-12T05:39:42.800Z,84.29
2019-02-12T05:42:10.166Z,84.41
2019-02-12T05:44:37.601Z,84.34
2019-02-12T05:47:06.914Z,84.30
2019-02-12T05:49:34.329Z,84.23
2019-02-12T05:52:01.711Z,84.18
2019-02-12T05:54:29.154Z,84.20
2019-02-12T05:56:56.534Z,84.21
2019-02-12T05:59:23.971Z,84.13
2019-02-12T06:01:51.383Z,84.05
2019-02-12T06:04:18.800Z,84.27
2019-02-12T06:06:49.339Z,84.41
2019-02-12T06:09:17.254Z,84.66
2019-02-12T06:11:49.261Z,84.56
2019-02-12T06:14:24.626Z,84.63
2019-02-12T06:16:52.373Z,84.22
2019-02-12T06:19:20.293Z,84.19
2019-02-12T06:21:47.751Z,84.21
2019-02-12T06:24:15.526Z,84.15
2019-02-12T06:26:43.565Z,84.01
2019-02-12T06:29:11.130Z,83.74
2019-02-12T06:31:41.346Z,83.73
2019-02-12T06:34:12.351Z,83.87
2019-02-12T06:36:39.866Z,83.90
2019-02-12T06:39:07.476Z,83.92
2019-02-12T06:41:34.962Z,84.03
2019-02-12T06:44:02.336Z,84.30
2019-02-12T06:46:29.958Z,84.34
2019-02-12T06:48:57.346Z,84.38
2019-02-12T06:51:24.776Z,84.28
2019-02-12T06:53:52.446Z,84.47
2019-02-12T06:56:19.861Z,84.43
2019-02-12T06:58:47.286Z,84.34
2019-02-12T07:01:14.821Z,84.51
2019-02-12T07:04:02.957Z,84.55
2019-02-12T07:06:55.636Z,84.54
2019-02-12T07:09:36.786Z,84.68
2019-02-12T07:12:47.907Z,84.82
2019-02-12T07:15:39.627Z,84.75
2019-02-12T07:18:43.278Z,84.72
2019-02-12T07:21:48.266Z,84.63
2019-02-12T07:24:46.364Z,84.68
2019-02-12T07:27:31.112Z,84.54
2019-02-12T07:30:51.541Z,84.46
2019-02-12T07:34:03.526Z,84.29
2019-02-12T07:37:04.759Z,84.27
2019-02-12T07:39:57.756Z,83.77
2019-02-12T07:42:51.746Z,84.02
2019-02-12T07:45:45.376Z,84.38
2019-02-12T07:48:38.381Z,84.51
2019-02-12T07:51:37.166Z,84.97
2019-02-12T07:54:40.676Z,85.46
2019-02-12T07:57:35.927Z,85.52
2019-02-12T08:00:33.251Z,85.76
2019-02-12T08:03:41.189Z,86.08
2019-02-12T08:06:25.021Z,86.21
2019-02-12T08:09:29.046Z,86.02
2019-02-12T08:12:50.731Z,85.87
2019-02-12T08:15:37.771Z,85.85
2019-02-12T08:18:12.552Z,84.77
2019-02-12T08:21:20.061Z,84.62
2019-02-12T08:24:31.513Z,84.07
2019-02-12T08:27:43.476Z,84.06
2019-02-12T08:30:51.911Z,83.82
2019-02-12T08:33:49.369Z,83.91
2019-02-12T08:36:48.701Z,84.07
2019-02-12T08:39:56.560Z,84.27
2019-02-12T08:43:01.017Z,84.33
2019-02-12T08:46:12.821Z,84.07
2019-02-12T08:49:16.111Z,84.33
2019-02-12T08:52:40.343Z,83.84
2019-02-12T08:55:36.880Z,84.03
2019-02-12T08:58:48.900Z,83.61
2019-02-12T09:01:46.601Z,82.99
2019-02-12T09:04:37.587Z,83.03
2019-02-12T09:07:35.105Z,82.87
2019-02-12T09:10:48.741Z,82.98
2019-02-12T09:13:56.381Z,83.33
2019-02-12T09:17:03.663Z,83.75
2019-02-12T09:20:10.453Z,83.98
2019-02-12T09:23:26.011Z,84.28
2019-02-12T09:26:23.066Z,84.22
2019-02-12T09:29:38.036Z,83.36
2019-02-12T09:32:41.445Z,82.99
2019-02-12T09:35:34.205Z,82.24
2019-02-12T09:38:39.506Z,82.46
2019-02-12T09:41:33.410Z,82.34
2019-02-12T09:44:30.991Z,81.24
2019-02-12T09:47:24.045Z,80.46
2019-02-12T09:50:32.063Z,79.11
2019-02-12T09:53:32.581Z,79.13
2019-02-12T09:56:30.748Z,78.53
2019-02-12T09:59:41.873Z,78.36
2019-02-12T10:03:00.232Z,77.66
2019-02-12T10:05:53.996Z,77.30
2019-02-12T10:09:01.315Z,76.87
2019-02-12T10:12:19.731Z,77.09
2019-02-12T10:15:30.416Z,77.06
2019-02-12T10:18:36.711Z,76.60
2019-02-12T10:21:54.815Z,76.44
2019-02-12T10:24:53.682Z,76.26
2019-02-12T10:28:08.720Z,76.02
2019-02-12T10:31:08.228Z,75.55
2019-02-12T10:33:35.616Z,76.16
2019-02-12T10:36:03.066Z,75.49
2019-02-12T10:38:30.588Z,75.21
2019-02-12T10:40:58.026Z,75.23
2019-02-12T10:43:25.420Z,75.58
2019-02-12T10:45:52.861Z,74.75
2019-02-12T10:48:20.246Z,74.20
2019-02-12T10:50:47.713Z,74.81
2019-02-12T10:53:15.101Z,75.00
2019-02-12T10:55:42.536Z,74.39
2019-02-12T10:58:09.920Z,75.12
2019-02-12T11:00:37.441Z,74.95
2019-02-12T11:03:04.826Z,74.41
2019-02-12T11:05:32.271Z,74.15
2019-02-12T11:07:59.655Z,73.96
2019-02-12T11:10:27.101Z,74.54
2019-02-12T11:12:54.554Z,74.08
2019-02-12T11:15:22.071Z,73.61
2019-02-12T11:17:49.446Z,73.83
2019-02-12T11:20:16.886Z,73.87
2019-02-12T11:22:44.311Z,73.73
2019-02-12T11:25:11.740Z,73.33
2019-02-12T11:27:39.131Z,73.62
2019-02-12T11:30:07.226Z,73.71
2019-02-12T11:32:34.766Z,73.46
2019-02-12T11:35:02.368Z,73.96
2019-02-12T11:37:29.927Z,74.36
2019-02-12T11:39:57.507Z,73.88
2019-02-12T11:42:25.056Z,73.27
2019-02-12T11:44:52.626Z,73.08
2019-02-12T11:47:20.247Z,73.85
2019-02-12T11:49:47.826Z,73.57
2019-02-12T11:52:15.388Z,73.94
2019-02-12T11:54:43.966Z,74.58
2019-02-12T11:57:11.706Z,74.36
2019-02-12T11:59:39.235Z,74.50
2019-02-12T12:02:06.786Z,74.74
2019-02-12T12:04:34.327Z,74.81
2019-02-12T12:07:01.906Z,75.22
2019-02-12T12:09:29.448Z,75.84
2019-02-12T12:11:57.046Z,76.08
2019-02-12T12:14:24.628Z,76.28
2019-02-12T12:16:52.205Z,76.02
2019-02-12T12:19:19.727Z,76.23
2019-02-12T12:21:47.344Z,75.44
2019-02-12T12:24:14.926Z,74.51
2019-02-12T12:26:42.646Z,74.50
2019-02-12T12:29:10.185Z,73.77
2019-02-12T12:31:37.766Z,73.79
2019-02-12T12:34:05.306Z,73.40
2019-02-12T12:36:32.865Z,73.96
2019-02-12T12:39:00.406Z,74.43
2019-02-12T12:41:28.046Z,74.61
2019-02-12T12:43:55.612Z,74.99
2019-02-12T12:46:25.349Z,74.65
2019-02-12T12:48:52.869Z,74.68
2019-02-12T12:51:20.848Z,75.02
2019-02-12T12:53:48.390Z,74.98
2019-02-12T12:56:15.974Z,74.05
2019-02-12T12:58:43.546Z,74.09
2019-02-12T13:01:11.185Z,74.21
2019-02-12T13:03:38.745Z,74.84
2019-02-12T13:06:06.226Z,74.72
2019-02-12T13:08:33.786Z,75.00
2019-02-12T13:11:01.331Z,75.22
2019-02-12T13:13:29.105Z,75.13
2019-02-12T13:15:56.647Z,75.37
2019-02-12T13:18:24.247Z,74.72
2019-02-12T13:20:51.787Z,74.16
2019-02-12T13:23:19.414Z,74.23
2019-02-12T13:25:46.945Z,74.27
2019-02-12T13:28:14.528Z,74.42
2019-02-12T13:30:42.406Z,74.58
2019-02-12T13:33:10.027Z,74.07
2019-02-12T13:35:39.809Z,74.23
2019-02-12T13:38:07.466Z,74.33
2019-02-12T13:40:35.126Z,73.71
2019-02-12T13:43:05.864Z,74.37
2019-02-12T13:45:33.452Z,74.62
2019-02-12T13:48:01.045Z,74.80
2019-02-12T13:50:28.585Z,74.90
2019-02-12T13:52:56.325Z,74.75
2019-02-12T13:55:23.918Z,75.16
2019-02-12T13:57:51.505Z,75.83
2019-02-12T14:00:19.204Z,75.71
2019-02-12T14:02:46.765Z,75.40
2019-02-12T14:05:15.557Z,75.79
2019-02-12T14:07:43.307Z,75.67
2019-02-12T14:10:10.892Z,76.02
2019-02-12T14:12:38.604Z,76.24
2019-02-12T14:15:08.064Z,75.80
2019-02-12T14:17:35.652Z,75.58
2019-02-12T14:20:04.026Z,75.76
2019-02-12T14:22:31.724Z,76.17
2019-02-12T14:24:59.244Z,75.43
2019-02-12T14:27:26.884Z,75.98
2019-02-12T14:29:54.385Z,75.63
2019-02-12T14:32:54.707Z,75.95
2019-02-12T14:35:59.184Z,75.77
2019-02-12T14:38:35.111Z,76.23
2019-02-12T14:41:09.884Z,76.42
2019-02-12T14:43:57.104Z,75.94
2019-02-12T14:46:26.376Z,75.70
2019-02-12T14:48:58.925Z,76.13
2019-02-12T14:51:26.544Z,76.25
2019-02-12T14:53:55.999Z,76.36
2019-02-12T14:56:24.383Z,76.02
2019-02-12T14:58:54.739Z,76.36
2019-02-12T15:01:45.163Z,76.49
2019-02-12T15:04:23.424Z,76.68
2019-02-12T15:07:09.763Z,76.28
2019-02-12T15:13:16.043Z,76.74
2019-02-12T15:15:50.944Z,76.86
2019-02-12T15:18:24.664Z,76.86
2019-02-12T15:20:54.682Z,76.90
2019-02-12T15:23:22.392Z,77.41
2019-02-12T15:26:05.003Z,77.21
2019-02-12T15:29:04.103Z,77.54
2019-02-12T15:31:29.124Z,77.75
2019-02-12T15:34:31.236Z,78.00
2019-02-12T15:37:25.898Z,78.29
2019-02-12T15:39:55.234Z,77.99
2019-02-12T15:42:23.632Z,78.16
2019-02-12T15:45:07.966Z,78.22
2019-02-12T15:47:48.083Z,78.25
2019-02-12T15:50:21.208Z,77.62
2019-02-12T15:52:52.064Z,77.45
2019-02-12T15:55:26.606Z,77.48
2019-02-12T15:58:08.332Z,77.72
2019-02-12T16:00:36.305Z,77.50
2019-02-12T16:03:04.092Z,77.32
2019-02-12T16:05:34.867Z,77.42
2019-02-12T16:08:10.388Z,77.20
2019-02-12T16:10:40.122Z,77.22
2019-02-12T16:13:09.487Z,77.17
2019-02-12T16:15:45.194Z,77.20
2019-02-12T16:18:13.027Z,77.21
2019-02-12T16:20:45.784Z,77.30
2019-02-12T16:23:14.000Z,77.45
2019-02-12T16:25:42.104Z,77.66
2019-02-12T16:28:13.312Z,77.86
2019-02-12T16:30:41.424Z,77.98
2019-02-12T16:33:11.623Z,78.17
2019-02-12T16:35:39.554Z,78.26
2019-02-12T16:38:07.712Z,78.25
2019-02-12T16:40:35.844Z,78.21
2019-02-12T16:43:14.702Z,78.49
2019-02-12T16:46:01.363Z,78.54
2019-02-12T16:48:36.172Z,78.89
2019-02-12T16:51:04.386Z,78.77
2019-02-12T16:53:32.428Z,78.88
2019-02-12T16:56:07.916Z,79.12
2019-02-12T16:58:30.252Z,79.09
2019-02-12T17:00:58.164Z,79.01
2019-02-12T17:03:26.065Z,79.09
2019-02-12T17:05:53.893Z,79.08
2019-02-12T17:08:21.567Z,79.11
2019-02-12T17:10:49.401Z,79.07
2019-02-12T17:13:18.261Z,79.26
2019-02-12T17:15:46.214Z,79.33
2019-02-12T17:18:14.151Z,79.07
2019-02-12T17:20:41.879Z,79.00
2019-02-12T17:23:09.816Z,78.88
2019-02-12T17:25:42.771Z,78.81
2019-02-12T17:28:13.479Z,78.78
2019-02-12T17:30:41.477Z,79.04
2019-02-12T17:33:52.555Z,78.86
2019-02-12T17:36:24.315Z,78.74
2019-02-12T17:38:52.284Z,78.65
2019-02-12T17:41:20.007Z,78.74
2019-02-12T17:44:03.174Z,78.60
2019-02-12T17:46:39.340Z,78.61
2019-02-12T17:49:07.212Z,78.70
2019-02-12T17:51:35.476Z,78.56
2019-02-12T17:54:15.460Z,78.54
2019-02-12T17:56:42.713Z,78.68
2019-02-12T17:59:10.396Z,78.44
2019-02-12T18:01:38.263Z,78.55
2019-02-12T18:04:06.188Z,78.52
2019-02-12T18:06:45.425Z,78.34
2019-02-12T18:09:13.401Z,78.52
2019-02-12T18:11:41.256Z,78.60
2019-02-12T18:14:24.044Z,78.40
2019-02-12T18:16:52.131Z,78.48
2019-02-12T18:19:22.682Z,78.56
2019-02-12T18:21:51.992Z,78.50
2019-02-12T18:24:19.932Z,78.59
2019-02-12T18:26:47.892Z,78.61
2019-02-12T18:29:16.081Z,78.49
2019-02-12T18:31:44.091Z,78.47
2019-02-12T18:34:11.991Z,78.39
2019-02-12T18:36:39.753Z,78.30
2019-02-12T18:39:08.682Z,78.25
2019-02-12T18:41:36.461Z,78.29
2019-02-12T18:44:06.596Z,78.36
2019-02-12T18:46:34.321Z,78.38
2019-02-12T18:49:02.117Z,78.46
2019-02-12T18:51:30.051Z,78.39
2019-02-12T18:53:57.996Z,78.43
2019-02-12T18:56:25.786Z,78.36
2019-02-12T18:58:53.596Z,78.70
2019-02-12T19:01:21.381Z,78.88
2019-02-12T19:03:49.254Z,78.86
2019-02-12T19:06:17.062Z,78.80
2019-02-12T19:08:44.936Z,78.91
2019-02-12T19:11:12.881Z,79.04
2019-02-12T19:13:40.907Z,78.98
2019-02-12T19:16:08.691Z,78.92
2019-02-12T19:18:36.521Z,79.06
2019-02-12T19:21:04.935Z,79.05
2019-02-12T19:23:32.826Z,79.33
2019-02-12T19:26:00.751Z,79.41
2019-02-12T19:28:28.783Z,79.36
2019-02-12T19:30:56.626Z,79.70
2019-02-12T19:33:24.611Z,79.92
2019-02-12T19:35:52.447Z,79.86
2019-02-12T19:38:20.423Z,80.09
2019-02-12T19:40:48.361Z,80.28
2019-02-12T19:43:16.226Z,80.41
2019-02-12T19:45:44.166Z,80.47
2019-02-12T19:48:12.386Z,80.47
2019-02-12T19:50:40.270Z,80.65
2019-02-12T19:53:08.301Z,80.84
2019-02-12T19:55:39.776Z,80.94
2019-02-12T19:58:08.341Z,81.02
2019-02-12T20:00:36.166Z,81.16
2019-02-12T20:03:05.673Z,81.46
2019-02-12T20:05:33.561Z,81.57
2019-02-12T20:08:01.681Z,81.64
2019-02-12T20:10:29.629Z,81.40
2019-02-12T20:12:57.587Z,81.64
2019-02-12T20:15:25.491Z,81.40
2019-02-12T20:17:53.491Z,81.66
2019-02-12T20:20:21.322Z,81.53
2019-02-12T20:22:49.366Z,81.66
2019-02-12T20:25:17.351Z,81.90
2019-02-12T20:27:45.186Z,81.80
2019-02-12T20:30:14.148Z,81.96
2019-02-12T20:32:42.211Z,82.11
2019-02-12T20:35:14.841Z,82.16
2019-02-12T20:37:42.866Z,82.29
2019-02-12T20:40:11.719Z,82.59
2019-02-12T20:42:40.843Z,82.77
2019-02-12T20:45:11.239Z,83.04
2019-02-12T20:47:40.261Z,83.11
2019-02-12T20:50:09.420Z,83.37
2019-02-12T20:52:37.386Z,83.55
2019-02-12T20:55:05.646Z,83.72
2019-02-12T20:57:33.916Z,83.92
2019-02-12T21:00:02.031Z,83.84
2019-02-12T21:02:29.951Z,83.72
2019-02-12T21:04:57.834Z,83.70
2019-02-12T21:07:25.931Z,83.88
2019-02-12T21:09:53.871Z,83.71
2019-02-12T21:12:22.141Z,83.91
2019-02-12T21:14:50.011Z,83.72
2019-02-12T21:17:18.286Z,83.79
2019-02-12T21:19:46.146Z,83.73
2019-02-12T21:22:13.966Z,83.99
2019-02-12T21:24:41.825Z,84.05
2019-02-12T21:27:09.602Z,84.26
2019-02-12T21:29:37.536Z,84.34
2019-02-12T21:32:05.451Z,84.65
2019-02-12T21:34:33.434Z,84.42
2019-02-12T21:37:01.215Z,84.43
2019-02-12T21:39:31.106Z,84.58
2019-02-12T21:41:58.788Z,84.46
2019-02-12T21:44:26.741Z,84.47
2019-02-12T21:46:54.541Z,84.56
2019-02-12T21:49:22.341Z,84.43
2019-02-12T21:51:50.006Z,84.43
2019-02-12T21:54:17.766Z,83.92
2019-02-12T21:56:45.482Z,83.81
2019-02-12T21:59:13.916Z,83.71
2019-02-12T22:01:41.629Z,83.49
2019-02-12T22:04:09.241Z,83.24
2019-02-12T22:06:36.921Z,83.12
2019-02-12T22:09:05.131Z,82.79
2019-02-12T22:11:32.726Z,82.38
2019-02-12T22:14:00.301Z,82.58
2019-02-12T22:16:27.810Z,82.63
2019-02-12T22:18:55.346Z,82.17
2019-02-12T22:21:22.861Z,82.15
2019-02-12T22:23:50.301Z,81.86
2019-02-12T22:26:17.786Z,81.66
2019-02-12T22:28:46.362Z,81.58
2019-02-12T22:31:13.821Z,81.46
2019-02-12T22:33:41.247Z,81.39
2019-02-12T22:36:08.760Z,81.44
2019-02-12T22:38:36.131Z,81.21
2019-02-12T22:41:03.681Z,81.03
2019-02-12T22:43:31.061Z,81.09
2019-02-12T22:45:58.687Z,81.03
2019-02-12T22:48:26.086Z,81.07
2019-02-12T22:50:53.616Z,81.16
2019-02-12T22:53:21.113Z,81.18
2019-02-12T22:55:48.626Z,81.11
2019-02-12T22:58:16.036Z,81.23
2019-02-12T23:00:54.526Z,81.29
2019-02-12T23:03:22.023Z,81.23
2019-02-12T23:05:49.510Z,81.25
2019-02-12T23:08:16.890Z,81.18
2019-02-12T23:10:44.315Z,81.38
2019-02-12T23:13:11.871Z,81.39
2019-02-12T23:15:39.745Z,81.25
2019-02-12T23:18:07.139Z,81.20
2019-02-12T23:20:34.606Z,80.97
2019-02-12T23:23:02.110Z,81.08
2019-02-12T23:25:29.496Z,81.46
2019-02-12T23:27:57.804Z,81.08
2019-02-12T23:30:25.434Z,81.13
2019-02-12T23:32:52.960Z,81.11
2019-02-12T23:35:21.582Z,80.96
2019-02-12T23:37:49.117Z,80.70
2019-02-12T23:40:16.625Z,80.77
2019-02-12T23:42:44.158Z,80.71
2019-02-12T23:45:12.033Z,80.68
2019-02-12T23:47:40.481Z,80.83
2019-02-12T23:50:08.261Z,80.51
2019-02-12T23:52:35.826Z,80.62
2019-02-12T23:55:03.427Z,80.60
2019-02-12T23:57:30.912Z,80.42
2019-02-12T23:59:58.336Z,80.46
